createdAt,value
2018-05-18T00:00:41.731Z,18.9
2018-05-18T00:01:32.025Z,19
2018-05-18T00:02:21.174Z,19
2018-05-18T00:03:12.150Z,18.9
2018-05-18T00:04:01.264Z,19
2018-05-18T00:04:51.743Z,18.9
2018-05-18T00:05:42.015Z,18.9
2018-05-18T00:06:31.794Z,18.9
2018-05-18T00:07:22.139Z,18.9
2018-05-18T00:08:11.351Z,18.9
2018-05-18T00:09:01.451Z,18.9
2018-05-18T00:09:51.769Z,18.9
2018-05-18T00:10:42.140Z,18.9
2018-05-18T00:11:32.744Z,18.9
2018-05-18T00:12:21.659Z,18.9
2018-05-18T00:13:12.298Z,18.9
2018-05-18T00:14:01.780Z,18.9
2018-05-18T00:14:52.705Z,18.9
2018-05-18T00:15:42.225Z,18.9
2018-05-18T00:16:33.146Z,18.9
2018-05-18T00:17:23.147Z,18.9
2018-05-18T00:18:12.094Z,18.9
2018-05-18T00:19:02.994Z,18.9
2018-05-18T00:19:52.538Z,18.9
2018-05-18T00:20:43.156Z,18.9
2018-05-18T00:21:32.383Z,18.9
2018-05-18T00:22:23.292Z,18.9
2018-05-18T00:23:13.019Z,18.9
2018-05-18T00:24:03.529Z,18.9
2018-05-18T00:24:53.410Z,18.9
2018-05-18T00:25:43.509Z,18.9
2018-05-18T00:26:33.555Z,18.9
2018-05-18T00:27:23.630Z,18.9
2018-05-18T00:28:13.699Z,18.9
2018-05-18T00:29:03.766Z,18.9
2018-05-18T00:29:52.857Z,18.9
2018-05-18T00:30:43.136Z,18.9
2018-05-18T00:31:32.796Z,18.9
2018-05-18T00:32:23.282Z,18.9
2018-05-18T00:33:13.338Z,18.9
2018-05-18T00:34:03.947Z,18.9
2018-05-18T00:34:53.944Z,18.9
2018-05-18T00:35:43.226Z,18.9
2018-05-18T00:36:33.859Z,18.9
2018-05-18T00:37:22.806Z,18.9
2018-05-18T00:38:13.729Z,18.9
2018-05-18T00:39:03.816Z,18.9
2018-05-18T00:39:54.088Z,18.9
2018-05-18T00:40:44.424Z,18.9
2018-05-18T00:41:35.089Z,18.9
2018-05-18T00:42:24.269Z,18.9
2018-05-18T00:43:14.577Z,18.9
2018-05-18T00:44:04.672Z,18.9
2018-05-18T00:44:54.510Z,18.9
2018-05-18T00:45:45.339Z,18.9
2018-05-18T00:46:34.593Z,18.9
2018-05-18T00:47:24.621Z,18.9
2018-05-18T00:48:14.676Z,18.9
2018-05-18T00:49:05.288Z,18.9
2018-05-18T00:49:54.777Z,18.9
2018-05-18T00:50:45.454Z,18.9
2018-05-18T00:51:35.300Z,18.9
2018-05-18T00:52:25.838Z,18.9
2018-05-18T00:53:15.925Z,18.9
2018-05-18T00:54:05.403Z,18.9
2018-05-18T00:54:55.496Z,18.9
2018-05-18T00:55:45.837Z,18.9
2018-05-18T00:56:34.815Z,18.9
2018-05-18T00:57:26.187Z,18.9
2018-05-18T00:58:16.063Z,18.9
2018-05-18T00:59:05.766Z,18.9
2018-05-18T00:59:55.571Z,18.9
2018-05-18T01:00:46.454Z,18.9
2018-05-18T01:01:35.720Z,18.9
2018-05-18T01:02:26.050Z,18.9
2018-05-18T01:03:16.095Z,18.9
2018-05-18T01:04:06.720Z,18.9
2018-05-18T01:04:56.790Z,18.9
2018-05-18T01:05:46.626Z,18.9
2018-05-18T01:06:36.699Z,18.9
2018-05-18T01:07:26.783Z,18.9
2018-05-18T01:08:15.957Z,18.9
2018-05-18T01:09:06.516Z,18.9
2018-05-18T01:09:56.360Z,18.9
2018-05-18T01:10:46.420Z,18.9
2018-05-18T01:11:37.359Z,18.9
2018-05-18T01:12:27.081Z,18.9
2018-05-18T01:13:17.445Z,18.9
2018-05-18T01:14:07.218Z,18.9
2018-05-18T01:14:56.998Z,18.9
2018-05-18T01:15:47.670Z,18.9
2018-05-18T01:16:37.184Z,18.9
2018-05-18T01:17:27.537Z,18.9
2018-05-18T01:18:17.285Z,18.9
2018-05-18T01:19:07.339Z,18.9
2018-05-18T01:19:57.161Z,18.9
2018-05-18T01:20:48.045Z,18.9
2018-05-18T01:21:37.793Z,18.9
2018-05-18T01:22:27.123Z,18.9
2018-05-18T01:23:17.931Z,18.9
2018-05-18T01:24:07.773Z,18.9
2018-05-18T01:24:57.777Z,18.9
2018-05-18T01:25:46.996Z,18.9
2018-05-18T01:26:37.669Z,18.9
2018-05-18T01:27:28.237Z,18.9
2018-05-18T01:28:18.011Z,18.9
2018-05-18T01:29:08.146Z,18.9
2018-05-18T01:29:58.456Z,18.9
2018-05-18T01:30:47.998Z,18.9
2018-05-18T01:31:38.581Z,18.9
2018-05-18T01:32:28.427Z,18.9
2018-05-18T01:33:18.443Z,18.9
2018-05-18T01:34:08.777Z,18.9
2018-05-18T01:34:58.242Z,18.8
2018-05-18T01:35:48.561Z,18.9
2018-05-18T01:36:38.725Z,18.8
2018-05-18T01:37:28.730Z,18.9
2018-05-18T01:38:18.008Z,18.9
2018-05-18T01:39:09.408Z,18.9
2018-05-18T01:39:59.236Z,18.9
2018-05-18T01:40:48.984Z,18.9
2018-05-18T01:41:39.640Z,18.9
2018-05-18T01:42:29.689Z,18.9
2018-05-18T01:43:19.184Z,18.9
2018-05-18T01:44:09.232Z,18.9
2018-05-18T01:44:59.018Z,18.8
2018-05-18T01:45:49.656Z,18.9
2018-05-18T01:46:39.994Z,18.9
2018-05-18T01:47:29.494Z,18.9
2018-05-18T01:48:20.099Z,18.8
2018-05-18T01:49:09.633Z,18.9
2018-05-18T01:49:59.676Z,18.8
2018-05-18T01:50:49.761Z,18.8
2018-05-18T01:51:39.863Z,18.8
2018-05-18T01:52:29.377Z,18.8
2018-05-18T01:53:20.235Z,18.9
2018-05-18T01:54:10.056Z,18.8
2018-05-18T01:55:00.419Z,18.8
2018-05-18T01:55:49.885Z,18.9
2018-05-18T01:56:40.188Z,18.8
2018-05-18T01:57:29.444Z,18.8
2018-05-18T01:58:19.774Z,18.8
2018-05-18T01:59:10.339Z,18.8
2018-05-18T02:00:00.499Z,18.9
2018-05-18T02:00:50.234Z,18.8
2018-05-18T02:01:40.909Z,18.8
2018-05-18T02:02:30.436Z,18.8
2018-05-18T02:03:20.774Z,18.8
2018-05-18T02:04:10.799Z,18.9
2018-05-18T02:05:00.855Z,18.8
2018-05-18T02:05:50.907Z,18.8
2018-05-18T02:06:40.747Z,18.8
2018-05-18T02:07:30.748Z,18.8
2018-05-18T02:08:21.145Z,18.8
2018-05-18T02:09:11.455Z,18.8
2018-05-18T02:10:01.780Z,18.8
2018-05-18T02:10:51.275Z,18.8
2018-05-18T02:11:41.337Z,18.8
2018-05-18T02:12:31.411Z,18.8
2018-05-18T02:13:22.069Z,18.8
2018-05-18T02:14:11.875Z,18.8
2018-05-18T02:15:01.921Z,18.8
2018-05-18T02:15:51.686Z,18.8
2018-05-18T02:16:41.472Z,18.8
2018-05-18T02:17:32.381Z,18.8
2018-05-18T02:18:21.871Z,18.8
2018-05-18T02:19:11.636Z,18.8
2018-05-18T02:20:02.017Z,18.8
2018-05-18T02:20:52.688Z,18.8
2018-05-18T02:21:40.994Z,18.8
2018-05-18T02:22:32.758Z,18.8
2018-05-18T02:23:22.902Z,18.8
2018-05-18T02:24:12.604Z,18.8
2018-05-18T02:25:02.367Z,18.8
2018-05-18T02:25:52.457Z,18.8
2018-05-18T02:26:42.525Z,18.8
2018-05-18T02:27:33.159Z,18.8
2018-05-18T02:28:22.621Z,18.8
2018-05-18T02:29:12.188Z,18.8
2018-05-18T02:30:02.818Z,18.8
2018-05-18T02:30:52.885Z,18.8
2018-05-18T02:31:43.518Z,18.8
2018-05-18T02:32:31.820Z,18.8
2018-05-18T02:33:22.475Z,18.8
2018-05-18T02:34:12.303Z,18.8
2018-05-18T02:35:03.045Z,18.8
2018-05-18T02:35:53.030Z,18.8
2018-05-18T02:36:42.471Z,18.8
2018-05-18T02:37:32.673Z,18.8
2018-05-18T02:38:22.742Z,18.8
2018-05-18T02:39:13.266Z,18.8
2018-05-18T02:40:03.093Z,18.8
2018-05-18T02:40:53.415Z,18.8
2018-05-18T02:41:43.169Z,18.8
2018-05-18T02:42:33.816Z,18.8
2018-05-18T02:43:23.329Z,18.8
2018-05-18T02:44:13.635Z,18.8
2018-05-18T02:45:04.023Z,18.8
2018-05-18T02:45:54.376Z,18.8
2018-05-18T02:46:43.307Z,18.8
2018-05-18T02:47:34.159Z,18.8
2018-05-18T02:48:24.462Z,18.8
2018-05-18T02:49:14.528Z,18.8
2018-05-18T02:50:04.625Z,18.8
2018-05-18T02:50:54.419Z,18.8
2018-05-18T02:51:43.594Z,18.8
2018-05-18T02:52:35.512Z,18.8
2018-05-18T02:53:25.178Z,18.8
2018-05-18T02:54:14.915Z,18.8
2018-05-18T02:55:04.969Z,18.8
2018-05-18T02:55:55.287Z,18.8
2018-05-18T02:56:45.350Z,18.8
2018-05-18T02:57:34.617Z,18.8
2018-05-18T02:58:25.278Z,18.8
2018-05-18T02:59:15.291Z,18.8
2018-05-18T03:00:05.091Z,18.8
2018-05-18T03:00:55.188Z,18.8
2018-05-18T03:01:45.494Z,18.8
2018-05-18T03:02:34.119Z,18.8
2018-05-18T03:03:25.075Z,18.8
2018-05-18T03:04:15.385Z,18.8
2018-05-18T03:05:05.592Z,18.8
2018-05-18T03:05:55.777Z,18.8
2018-05-18T03:06:45.607Z,18.8
2018-05-18T03:07:35.945Z,18.8
2018-05-18T03:08:25.759Z,18.8
2018-05-18T03:09:15.523Z,18.8
2018-05-18T03:10:05.551Z,18.8
2018-05-18T03:10:56.302Z,18.8
2018-05-18T03:11:45.961Z,18.8
2018-05-18T03:12:36.023Z,18.8
2018-05-18T03:13:26.095Z,18.8
2018-05-18T03:14:16.105Z,18.8
2018-05-18T03:15:06.856Z,18.8
2018-05-18T03:15:56.071Z,18.8
2018-05-18T03:16:46.421Z,18.8
2018-05-18T03:17:36.932Z,18.8
2018-05-18T03:18:26.446Z,18.8
2018-05-18T03:19:16.829Z,18.8
2018-05-18T03:20:55.983Z,18.8
2018-05-18T03:21:46.554Z,18.8
2018-05-18T03:22:36.563Z,18.8
2018-05-18T03:23:26.158Z,18.8
2018-05-18T03:25:21.336Z,18.8
2018-05-18T03:27:36.647Z,18.8
2018-05-18T03:28:27.337Z,18.8
2018-05-18T03:29:16.812Z,18.8
2018-05-18T03:30:07.654Z,18.8
2018-05-18T03:32:37.638Z,18.8
2018-05-18T03:33:27.686Z,18.8
2018-05-18T03:34:17.571Z,18.8
2018-05-18T03:35:06.675Z,18.8
2018-05-18T03:36:48.122Z,18.8
2018-05-18T03:38:28.531Z,18.8
2018-05-18T03:40:08.392Z,18.8
2018-05-18T03:40:58.709Z,18.8
2018-05-18T03:42:38.874Z,18.8
2018-05-18T03:45:09.052Z,18.8
2018-05-18T15:07:47.572Z,19.8
2018-05-18T15:08:37.392Z,19.8
2018-05-18T15:09:27.014Z,19.8
2018-05-18T15:10:17.905Z,19.8
2018-05-18T15:11:08.494Z,19.8
2018-05-18T15:11:57.358Z,19.8
2018-05-18T15:12:46.981Z,19.8
2018-05-18T15:13:37.816Z,19.8
2018-05-18T15:14:27.899Z,19.7
2018-05-18T15:15:17.054Z,19.7
2018-05-18T15:16:07.721Z,19.7
2018-05-18T15:16:57.387Z,19.7
2018-05-18T15:17:47.116Z,19.7
2018-05-18T15:18:38.188Z,19.7
2018-05-18T15:19:27.990Z,19.7
2018-05-18T15:20:18.476Z,19.7
2018-05-18T15:21:07.266Z,19.7
2018-05-18T15:21:57.313Z,19.7
2018-05-18T15:22:48.815Z,19.7
2018-05-18T15:23:38.085Z,19.7
2018-05-18T15:24:27.778Z,19.7
2018-05-18T15:25:18.181Z,19.7
2018-05-18T15:26:08.793Z,19.7
2018-05-18T15:26:58.568Z,19.7
2018-05-18T15:27:48.747Z,19.7
2018-05-18T15:28:38.733Z,19.7
2018-05-18T15:29:28.801Z,19.7
2018-05-18T15:30:19.536Z,19.7
2018-05-18T15:31:08.146Z,19.7
2018-05-18T15:31:58.502Z,19.7
2018-05-18T15:32:48.749Z,19.7
2018-05-18T15:33:39.198Z,19.7
2018-05-18T15:34:28.640Z,19.7
2018-05-18T15:35:19.547Z,19.7
2018-05-18T15:36:09.286Z,19.7
2018-05-18T15:36:59.312Z,19.7
2018-05-18T15:37:48.846Z,19.7
2018-05-18T15:38:39.535Z,19.7
2018-05-18T15:39:29.421Z,19.7
2018-05-18T15:40:20.272Z,19.7
2018-05-18T15:41:09.695Z,19.7
2018-05-18T15:41:59.245Z,19.7
2018-05-18T15:42:50.671Z,19.7
2018-05-18T15:43:40.199Z,19.7
2018-05-18T15:44:29.728Z,19.8
2018-05-18T15:45:18.876Z,19.8
2018-05-18T15:46:10.722Z,19.8
2018-05-18T15:46:59.923Z,19.8
2018-05-18T15:47:49.690Z,19.8
2018-05-18T15:48:40.639Z,19.8
2018-05-18T15:49:31.599Z,19.8
2018-05-18T15:50:20.125Z,19.8
2018-05-18T15:51:10.828Z,19.8
2018-05-18T15:51:59.989Z,19.8
2018-05-18T15:52:51.186Z,19.8
2018-05-18T15:53:39.841Z,19.8
2018-05-18T15:54:30.441Z,19.9
2018-05-18T15:55:20.723Z,19.9
2018-05-18T15:56:10.773Z,19.9
2018-05-18T15:57:00.873Z,19.9
2018-05-18T15:57:51.458Z,19.9
2018-05-18T15:58:40.223Z,19.8
2018-05-18T15:59:30.906Z,19.8
2018-05-18T16:00:21.664Z,19.8
2018-05-18T16:01:10.314Z,19.9
2018-05-18T16:02:01.552Z,19.9
2018-05-18T16:02:51.555Z,19.9
2018-05-18T16:03:41.081Z,19.9
2018-05-18T16:04:31.674Z,19.9
2018-05-18T16:05:21.325Z,19.9
2018-05-18T16:06:11.904Z,19.9
2018-05-18T16:07:01.099Z,19.9
2018-05-18T16:07:52.314Z,19.9
2018-05-18T16:08:41.194Z,19.9
2018-05-18T16:09:32.145Z,19.9
2018-05-18T16:10:21.311Z,19.9
2018-05-18T16:11:12.019Z,19.9
2018-05-18T16:12:01.718Z,19.9
2018-05-18T16:12:52.144Z,19.9
2018-05-18T16:13:42.218Z,19.9
2018-05-18T16:14:32.765Z,19.9
2018-05-18T16:15:21.495Z,19.9
2018-05-18T16:16:12.626Z,20
2018-05-18T16:17:02.464Z,20
2018-05-18T16:17:50.540Z,19.9
2018-05-18T16:18:41.206Z,19.9
2018-05-18T16:19:30.737Z,19.9
2018-05-18T16:20:20.211Z,19.9
2018-05-18T16:21:12.111Z,19.9
2018-05-18T16:22:00.616Z,19.9
2018-05-18T16:22:51.037Z,19.9
2018-05-18T16:23:41.321Z,19.9
2018-05-18T16:24:30.533Z,19.9
2018-05-18T16:25:21.395Z,19.9
2018-05-18T16:26:10.610Z,19.9
2018-05-18T16:27:01.243Z,19.9
2018-05-18T16:27:51.511Z,19.9
2018-05-18T16:28:41.070Z,19.9
2018-05-18T16:29:31.750Z,19.9
2018-05-18T16:30:21.813Z,19.9
2018-05-18T16:31:11.030Z,19.9
2018-05-18T16:32:01.651Z,19.8
2018-05-18T16:32:51.132Z,19.9
2018-05-18T16:33:42.049Z,19.8
2018-05-18T16:34:31.846Z,19.8
2018-05-18T16:35:22.448Z,19.9
2018-05-18T16:36:12.282Z,19.9
2018-05-18T16:37:02.306Z,19.8
2018-05-18T16:37:52.091Z,19.8
2018-05-18T16:38:42.142Z,19.8
2018-05-18T16:39:32.482Z,19.8
2018-05-18T16:40:22.814Z,19.8
2018-05-18T16:41:12.916Z,19.8
2018-05-18T16:42:02.384Z,19.8
2018-05-18T16:42:52.988Z,19.8
2018-05-18T16:43:42.479Z,19.8
2018-05-18T16:44:32.868Z,19.8
2018-05-18T16:45:23.151Z,19.8
2018-05-18T16:46:13.231Z,19.8
2018-05-18T16:47:03.016Z,19.8
2018-05-18T16:47:53.095Z,19.8
2018-05-18T16:48:42.856Z,19.8
2018-05-18T16:49:32.946Z,19.8
2018-05-18T16:50:23.571Z,19.8
2018-05-18T16:51:13.124Z,19.8
2018-05-18T16:52:03.188Z,19.8
2018-05-18T16:52:54.170Z,19.8
2018-05-18T16:53:43.275Z,19.8
2018-05-18T16:54:33.151Z,19.8
2018-05-18T16:55:23.418Z,19.8
2018-05-18T16:56:13.779Z,19.8
2018-05-18T16:57:02.724Z,19.8
2018-05-18T16:57:53.898Z,19.8
2018-05-18T16:58:43.979Z,19.8
2018-05-18T16:59:33.741Z,19.8
2018-05-18T17:00:23.818Z,19.8
2018-05-18T17:01:13.347Z,19.8
2018-05-18T17:02:03.986Z,19.8
2018-05-18T17:02:54.384Z,19.9
2018-05-18T17:03:43.491Z,19.9
2018-05-18T17:04:34.401Z,19.9
2018-05-18T17:05:23.668Z,19.9
2018-05-18T17:06:14.620Z,19.9
2018-05-18T17:07:04.846Z,19.9
2018-05-18T17:07:54.953Z,19.9
2018-05-18T17:08:44.167Z,19.9
2018-05-18T17:09:34.788Z,19.9
2018-05-18T17:10:25.119Z,19.9
2018-05-18T17:11:14.935Z,19.9
2018-05-18T17:12:04.971Z,19.9
2018-05-18T17:12:55.023Z,19.9
2018-05-18T17:13:45.068Z,19.9
2018-05-18T17:14:34.349Z,19.9
2018-05-18T17:15:25.219Z,19.8
2018-05-18T17:16:15.288Z,19.9
2018-05-18T17:17:04.890Z,19.9
2018-05-18T17:17:54.556Z,19.9
2018-05-18T17:18:45.449Z,19.9
2018-05-18T17:19:35.571Z,19.9
2018-05-18T17:20:25.561Z,19.9
2018-05-18T17:21:15.125Z,19.9
2018-05-18T17:22:05.472Z,19.9
2018-05-18T17:22:56.118Z,19.9
2018-05-18T17:23:45.902Z,19.9
2018-05-18T17:24:35.655Z,19.9
2018-05-18T17:25:25.704Z,19.9
2018-05-18T17:26:16.371Z,19.9
2018-05-18T17:27:05.538Z,19.8
2018-05-18T17:27:56.188Z,19.9
2018-05-18T17:28:46.536Z,19.9
2018-05-18T17:29:36.292Z,19.9
2018-05-18T17:30:26.671Z,19.9
2018-05-18T17:31:15.968Z,19.9
2018-05-18T17:32:06.536Z,19.9
2018-05-18T17:32:56.159Z,19.9
2018-05-18T17:33:46.631Z,19.9
2018-05-18T17:34:36.418Z,19.9
2018-05-18T17:35:26.854Z,19.9
2018-05-18T17:36:16.617Z,19.8
2018-05-18T17:37:06.323Z,19.9
2018-05-18T17:37:56.940Z,19.9
2018-05-18T17:38:47.315Z,19.8
2018-05-18T17:39:37.142Z,19.8
2018-05-18T17:40:27.142Z,19.9
2018-05-18T17:41:16.942Z,19.8
2018-05-18T17:42:07.548Z,19.9
2018-05-18T17:42:57.597Z,19.8
2018-05-18T17:43:47.204Z,19.9
2018-05-18T17:44:37.257Z,19.8
2018-05-18T17:45:27.619Z,19.9
2018-05-18T17:46:17.601Z,19.8
2018-05-18T17:47:07.379Z,19.8
2018-05-18T17:47:57.213Z,19.8
2018-05-18T17:48:47.481Z,19.9
2018-05-18T17:49:37.848Z,19.9
2018-05-18T17:50:27.902Z,19.9
2018-05-18T17:51:18.249Z,19.9
2018-05-18T17:52:08.151Z,19.9
2018-05-18T17:52:58.405Z,19.9
2018-05-18T17:53:47.906Z,19.9
2018-05-18T17:54:38.402Z,19.9
2018-05-18T17:55:28.318Z,19.9
2018-05-18T17:56:18.698Z,19.9
2018-05-18T17:57:08.487Z,19.8
2018-05-18T17:57:58.268Z,19.9
2018-05-18T17:58:48.836Z,19.9
2018-05-18T17:59:38.882Z,19.8
2018-05-18T18:00:28.175Z,19.9
2018-05-18T18:01:18.264Z,19.8
2018-05-18T18:02:09.108Z,19.8
2018-05-18T18:02:58.354Z,19.9
2018-05-18T18:03:48.692Z,19.8
2018-05-18T18:04:39.248Z,19.8
2018-05-18T18:05:29.363Z,19.8
2018-05-18T18:06:19.188Z,19.8
2018-05-18T18:07:09.523Z,19.8
2018-05-18T18:08:00.109Z,19.8
2018-05-18T18:08:48.186Z,19.8
2018-05-18T18:09:39.394Z,19.8
2018-05-18T18:10:29.241Z,19.8
2018-05-18T18:11:19.538Z,19.8
2018-05-18T18:12:09.838Z,19.8
2018-05-18T18:12:59.643Z,19.8
2018-05-18T18:13:49.762Z,19.8
2018-05-18T18:14:39.470Z,19.8
2018-05-18T18:15:29.004Z,19.8
2018-05-18T18:16:19.928Z,19.8
2018-05-18T18:17:09.583Z,19.8
2018-05-18T18:18:00.328Z,19.8
2018-05-18T18:18:50.124Z,19.8
2018-05-18T18:19:40.411Z,19.8
2018-05-18T18:20:30.204Z,19.8
2018-05-18T18:21:20.278Z,19.8
2018-05-18T18:22:10.727Z,19.8
2018-05-18T18:23:00.450Z,19.8
2018-05-18T18:23:50.482Z,19.8
2018-05-18T18:24:39.882Z,19.8
2018-05-18T18:25:30.395Z,19.8
2018-05-18T18:26:21.090Z,19.8
2018-05-18T18:27:10.561Z,19.8
2018-05-18T18:28:00.944Z,19.8
2018-05-18T18:28:51.098Z,19.8
2018-05-18T18:29:40.771Z,19.8
2018-05-18T18:30:30.527Z,19.8
2018-05-18T18:31:21.145Z,19.8
2018-05-18T18:32:10.847Z,19.8
2018-05-18T18:33:01.082Z,19.8
2018-05-18T18:33:51.348Z,19.8
2018-05-18T18:34:41.505Z,19.8
2018-05-18T18:35:31.510Z,19.8
2018-05-18T18:36:22.807Z,19.8
2018-05-18T18:37:12.076Z,19.8
2018-05-18T18:38:01.365Z,19.8
2018-05-18T18:38:51.775Z,19.8
2018-05-18T18:39:41.551Z,19.8
2018-05-18T18:40:30.983Z,19.8
2018-05-18T18:41:21.611Z,19.8
2018-05-18T18:42:11.711Z,19.8
2018-05-18T18:43:01.795Z,19.8
2018-05-18T18:43:52.141Z,19.8
2018-05-18T18:44:41.633Z,19.8
2018-05-18T18:45:31.439Z,19.8
2018-05-18T18:46:22.058Z,19.8
2018-05-18T18:47:12.406Z,19.8
2018-05-18T18:48:02.178Z,19.8
2018-05-18T18:48:52.566Z,19.8
2018-05-18T18:49:42.890Z,19.8
2018-05-18T18:50:32.917Z,19.8
2018-05-18T18:51:22.715Z,19.8
2018-05-18T18:52:13.691Z,19.8
2018-05-18T18:53:02.008Z,19.8
2018-05-18T18:53:52.578Z,19.8
2018-05-18T18:54:42.975Z,19.8
2018-05-18T18:55:32.458Z,19.8
2018-05-18T18:56:22.569Z,19.8
2018-05-18T18:57:12.620Z,19.8
2018-05-18T18:58:03.261Z,19.8
2018-05-18T18:58:53.122Z,19.8
2018-05-18T18:59:43.071Z,19.8
2018-05-18T19:00:33.150Z,19.8
2018-05-18T19:01:23.172Z,19.8
2018-05-18T19:02:13.523Z,19.8
2018-05-18T19:03:03.623Z,19.8
2018-05-18T19:03:53.102Z,19.8
2018-05-18T19:04:44.121Z,19.8
2018-05-18T19:05:34.113Z,19.8
2018-05-18T19:06:23.540Z,19.8
2018-05-18T19:07:13.660Z,19.8
2018-05-18T19:08:03.917Z,19.8
2018-05-18T19:08:54.105Z,19.8
2018-05-18T19:09:44.433Z,19.8
2018-05-18T19:10:34.212Z,19.8
2018-05-18T19:11:24.552Z,19.8
2018-05-18T19:12:14.368Z,19.8
2018-05-18T19:13:03.855Z,19.8
2018-05-18T19:13:53.953Z,19.8
2018-05-18T19:14:44.884Z,19.8
2018-05-18T19:15:34.823Z,19.8
2018-05-18T19:16:24.620Z,19.8
2018-05-18T19:17:13.844Z,19.8
2018-05-18T19:18:04.746Z,19.8
2018-05-18T19:18:55.184Z,19.8
2018-05-18T19:19:44.570Z,19.8
2018-05-18T19:20:34.969Z,19.8
2018-05-18T19:21:25.025Z,19.8
2018-05-18T19:22:15.141Z,19.8
2018-05-18T19:23:05.134Z,19.8
2018-05-18T19:23:54.700Z,19.8
2018-05-18T19:24:45.052Z,19.8
2018-05-18T19:25:35.049Z,19.8
2018-05-18T19:26:25.099Z,19.8
2018-05-18T19:27:15.257Z,19.8
2018-05-18T19:28:05.598Z,19.8
2018-05-18T19:28:55.349Z,19.8
2018-05-18T19:29:46.000Z,19.8
2018-05-18T19:30:35.227Z,19.8
2018-05-18T19:31:26.123Z,19.8
2018-05-18T19:32:15.320Z,19.8
2018-05-18T19:33:05.920Z,19.8
2018-05-18T19:33:55.457Z,19.8
2018-05-18T19:34:45.823Z,19.8
2018-05-18T19:35:36.094Z,19.8
2018-05-18T19:36:26.793Z,19.8
2018-05-18T19:37:15.628Z,19.8
2018-05-18T19:38:05.451Z,19.8
2018-05-18T19:38:55.882Z,19.8
2018-05-18T19:39:46.181Z,19.8
2018-05-18T19:40:36.591Z,19.8
2018-05-18T19:41:26.574Z,19.8
2018-05-18T19:42:16.383Z,19.8
2018-05-18T19:43:06.396Z,19.8
2018-05-18T19:43:56.239Z,19.8
2018-05-18T19:44:45.940Z,19.8
2018-05-18T19:45:36.635Z,19.8
2018-05-18T19:46:25.798Z,19.8
2018-05-18T19:47:16.741Z,19.7
2018-05-18T19:48:06.828Z,19.8
2018-05-18T19:48:57.152Z,19.7
2018-05-18T19:49:47.240Z,19.7
2018-05-18T19:50:37.244Z,19.7
2018-05-18T19:51:27.041Z,19.8
2018-05-18T19:52:17.419Z,19.7
2018-05-18T19:53:07.484Z,19.7
2018-05-18T19:53:57.587Z,19.8
2018-05-18T19:54:47.315Z,19.7
2018-05-18T19:55:37.680Z,19.7
2018-05-18T19:56:27.712Z,19.7
2018-05-18T19:57:18.039Z,19.7
2018-05-18T19:58:07.550Z,19.7
2018-05-18T19:58:57.632Z,19.7
2018-05-18T19:59:47.730Z,19.7
2018-05-18T20:00:38.319Z,19.7
2018-05-18T20:01:27.837Z,19.7
2018-05-18T20:02:18.186Z,19.7
2018-05-18T20:03:08.213Z,19.7
2018-05-18T20:03:58.022Z,19.7
2018-05-18T20:04:47.822Z,19.7
2018-05-18T20:05:38.795Z,19.7
2018-05-18T20:06:27.442Z,19.7
2018-05-18T20:07:18.077Z,19.7
2018-05-18T20:08:08.688Z,19.7
2018-05-18T20:08:58.499Z,19.7
2018-05-18T20:09:48.471Z,19.7
2018-05-18T20:10:38.763Z,19.7
2018-05-18T20:11:29.040Z,19.7
2018-05-18T20:12:19.505Z,19.7
2018-05-18T20:13:08.684Z,19.6
2018-05-18T20:13:58.616Z,19.7
2018-05-18T20:14:49.012Z,19.7
2018-05-18T20:15:38.539Z,19.7
2018-05-18T20:16:28.911Z,19.6
2018-05-18T20:17:19.244Z,19.7
2018-05-18T20:18:09.024Z,19.6
2018-05-18T20:18:58.884Z,19.6
2018-05-18T20:19:50.624Z,19.6
2018-05-18T20:20:39.481Z,19.7
2018-05-18T20:21:29.269Z,19.6
2018-05-18T20:22:19.362Z,19.6
2018-05-18T20:23:09.450Z,19.7
2018-05-18T20:24:00.069Z,19.6
2018-05-18T20:24:49.541Z,19.6
2018-05-18T20:25:39.603Z,19.7
2018-05-18T20:26:29.693Z,19.6
2018-05-18T20:27:19.823Z,19.6
2018-05-18T20:28:10.093Z,19.6
2018-05-18T20:29:00.457Z,19.6
2018-05-18T20:29:49.939Z,19.6
2018-05-18T20:30:40.558Z,19.6
2018-05-18T20:31:30.333Z,19.6
2018-05-18T20:32:20.126Z,19.6
2018-05-18T20:33:10.183Z,19.6
2018-05-18T20:34:00.039Z,19.6
2018-05-18T20:34:50.102Z,19.6
2018-05-18T20:35:40.873Z,19.6
2018-05-18T20:36:30.993Z,19.6
2018-05-18T20:37:20.512Z,19.6
2018-05-18T20:38:11.312Z,19.6
2018-05-18T20:39:00.610Z,19.6
2018-05-18T20:39:50.414Z,19.6
2018-05-18T20:40:40.722Z,19.6
2018-05-18T20:41:30.917Z,19.6
2018-05-18T20:42:20.628Z,19.6
2018-05-18T20:43:11.300Z,19.6
2018-05-18T20:44:00.756Z,19.6
2018-05-18T20:44:51.170Z,19.6
2018-05-18T20:45:40.317Z,19.6
2018-05-18T20:46:31.198Z,19.6
2018-05-18T20:47:21.852Z,19.6
2018-05-18T20:48:11.339Z,19.6
2018-05-18T20:49:01.669Z,19.6
2018-05-18T20:49:52.055Z,19.6
2018-05-18T20:50:41.608Z,19.6
2018-05-18T20:51:31.888Z,19.6
2018-05-18T20:52:21.715Z,19.6
2018-05-18T20:53:12.005Z,19.6
2018-05-18T20:54:02.118Z,19.6
2018-05-18T20:54:52.373Z,19.6
2018-05-18T20:55:42.488Z,19.6
2018-05-18T20:56:32.294Z,19.6
2018-05-18T20:57:22.643Z,19.6
2018-05-18T20:58:12.088Z,19.6
2018-05-18T20:59:02.272Z,19.6
2018-05-18T20:59:52.245Z,19.6
2018-05-18T21:00:42.559Z,19.6
2018-05-18T21:01:32.664Z,19.6
2018-05-18T21:02:22.427Z,19.6
2018-05-18T21:03:12.551Z,19.6
2018-05-18T21:04:02.279Z,19.6
2018-05-18T21:04:52.341Z,19.6
2018-05-18T21:05:42.954Z,19.6
2018-05-18T21:06:33.318Z,19.6
2018-05-18T21:07:23.092Z,19.6
2018-05-18T21:08:13.196Z,19.6
2018-05-18T21:09:02.956Z,19.6
2018-05-18T21:09:53.599Z,19.6
2018-05-18T21:10:44.323Z,19.6
2018-05-18T21:11:33.106Z,19.6
2018-05-18T21:12:22.627Z,19.6
2018-05-18T21:13:13.536Z,19.6
2018-05-18T21:14:02.836Z,19.6
2018-05-18T21:14:53.731Z,19.6
2018-05-18T21:15:43.176Z,19.6
2018-05-18T21:16:33.802Z,19.6
2018-05-18T21:17:23.956Z,19.6
2018-05-18T21:18:13.716Z,19.6
2018-05-18T21:19:04.280Z,19.6
2018-05-18T21:19:53.225Z,19.6
2018-05-18T21:20:44.203Z,19.6
2018-05-18T21:21:33.621Z,19.6
2018-05-18T21:22:24.005Z,19.6
2018-05-18T21:23:13.765Z,19.6
2018-05-18T21:24:03.868Z,19.6
2018-05-18T21:24:54.188Z,19.6
2018-05-18T21:25:44.542Z,19.6
2018-05-18T21:26:34.610Z,19.6
2018-05-18T21:27:24.093Z,19.6
2018-05-18T21:28:14.980Z,19.6
2018-05-18T21:29:04.518Z,19.6
2018-05-18T21:29:54.247Z,19.6
2018-05-18T21:30:44.631Z,19.6
2018-05-18T21:31:34.938Z,19.6
2018-05-18T21:32:25.063Z,19.6
2018-05-18T21:33:15.074Z,19.6
2018-05-18T21:34:04.905Z,19.6
2018-05-18T21:34:55.229Z,19.6
2018-05-18T21:35:45.269Z,19.6
2018-05-18T21:36:35.084Z,19.5
2018-05-18T21:37:25.377Z,19.5
2018-05-18T21:38:15.827Z,19.6
2018-05-18T21:39:05.811Z,19.6
2018-05-18T21:39:55.280Z,19.6
2018-05-18T21:40:44.659Z,19.6
2018-05-18T21:41:34.610Z,19.5
2018-05-18T21:42:24.497Z,19.6
2018-05-18T21:43:14.934Z,19.5
2018-05-18T21:44:05.676Z,19.6
2018-05-18T21:44:54.520Z,19.6
2018-05-18T21:45:45.558Z,19.5
2018-05-18T21:46:35.539Z,19.6
2018-05-18T21:47:26.146Z,19.5
2018-05-18T21:48:16.265Z,19.5
2018-05-18T21:49:05.764Z,19.5
2018-05-18T21:49:56.158Z,19.5
2018-05-18T21:50:46.249Z,19.5
2018-05-18T21:51:36.782Z,19.5
2018-05-18T21:52:26.274Z,19.5
2018-05-18T21:53:16.879Z,19.5
2018-05-18T21:54:06.924Z,19.5
2018-05-18T21:54:56.559Z,19.5
2018-05-18T21:55:46.916Z,19.6
2018-05-18T21:56:36.659Z,19.5
2018-05-18T21:57:25.862Z,19.5
2018-05-18T21:58:16.769Z,19.5
2018-05-18T21:59:07.390Z,19.5
2018-05-18T21:59:57.468Z,19.5
2018-05-18T22:00:46.661Z,19.5
2018-05-18T22:01:36.955Z,19.5
2018-05-18T22:02:27.748Z,19.5
2018-05-18T22:03:17.694Z,19.5
2018-05-18T22:04:06.960Z,19.5
2018-05-18T22:04:57.145Z,19.5
2018-05-18T22:05:47.899Z,19.5
2018-05-18T22:06:37.831Z,19.5
2018-05-18T22:07:27.525Z,19.5
2018-05-18T22:08:16.937Z,19.5
2018-05-18T22:09:07.351Z,19.5
2018-05-18T22:09:57.109Z,19.5
2018-05-18T22:10:48.286Z,19.5
2018-05-18T22:11:37.507Z,19.5
2018-05-18T22:12:27.235Z,19.5
2018-05-18T22:13:17.610Z,19.5
2018-05-18T22:14:08.101Z,19.5
2018-05-18T22:14:57.729Z,19.5
2018-05-18T22:15:48.660Z,19.5
2018-05-18T22:16:38.137Z,19.5
2018-05-18T22:17:28.222Z,19.4
2018-05-18T22:18:18.832Z,19.5
2018-05-18T22:19:08.295Z,19.5
2018-05-18T22:19:58.427Z,19.5
2018-05-18T22:20:48.753Z,19.5
2018-05-18T22:21:38.597Z,19.5
2018-05-18T22:22:29.149Z,19.5
2018-05-18T22:23:18.975Z,19.5
2018-05-18T22:24:09.262Z,19.5
2018-05-18T22:24:59.373Z,19.5
2018-05-18T22:25:48.935Z,19.4
2018-05-18T22:26:38.899Z,19.5
2018-05-18T22:27:29.595Z,19.5
2018-05-18T22:28:19.039Z,19.4
2018-05-18T22:29:09.375Z,19.5
2018-05-18T22:29:59.446Z,19.4
2018-05-18T22:30:49.488Z,19.5
2018-05-18T22:31:39.307Z,19.5
2018-05-18T22:32:29.622Z,19.5
2018-05-18T22:33:19.131Z,19.4
2018-05-18T22:34:09.787Z,19.5
2018-05-18T22:34:59.543Z,19.4
2018-05-18T22:35:49.650Z,19.5
2018-05-18T22:36:40.360Z,19.4
2018-05-18T22:37:29.717Z,19.4
2018-05-18T22:38:19.527Z,19.4